sensor_id;sensor_type;location;lat;lon;timestamp;temperature;humidity
3602;DHT22;1815;50.950;6.920;2022-08-19T00:01:29;22.80;99.90
3602;DHT22;1815;50.950;6.920;2022-08-19T00:04:00;22.80;99.90
3602;DHT22;1815;50.950;6.920;2022-08-19T00:06:28;22.80;99.90
3602;DHT22;1815;50.950;6.920;2022-08-19T00:08:54;22.80;99.90
3602;DHT22;1815;50.950;6.920;2022-08-19T00:11:21;22.80;99.90
3602;DHT22;1815;50.950;6.920;2022-08-19T00:13:47;22.70;99.90
3602;DHT22;1815;50.950;6.920;2022-08-19T00:16:14;22.70;99.90
3602;DHT22;1815;50.950;6.920;2022-08-19T00:18:41;22.70;99.90
3602;DHT22;1815;50.950;6.920;2022-08-19T00:21:06;22.60;99.90
3602;DHT22;1815;50.950;6.920;2022-08-19T00:23:35;22.60;99.90
3602;DHT22;1815;50.950;6.920;2022-08-19T00:26:03;22.60;99.90
3602;DHT22;1815;50.950;6.920;2022-08-19T00:28:29;22.60;99.90
3602;DHT22;1815;50.950;6.920;2022-08-19T00:30:56;22.60;99.90
3602;DHT22;1815;50.950;6.920;2022-08-19T00:33:21;22.50;99.90
3602;DHT22;1815;50.950;6.920;2022-08-19T00:35:47;22.50;99.90
3602;DHT22;1815;50.950;6.920;2022-08-19T00:38:13;22.50;99.90
3602;DHT22;1815;50.950;6.920;2022-08-19T00:40:39;22.50;99.90
3602;DHT22;1815;50.950;6.920;2022-08-19T00:43:09;22.50;99.90
3602;DHT22;1815;50.950;6.920;2022-08-19T00:45:35;22.40;99.90
3602;DHT22;1815;50.950;6.920;2022-08-19T00:48:02;22.40;99.90
3602;DHT22;1815;50.950;6.920;2022-08-19T00:50:32;22.40;99.90
3602;DHT22;1815;50.950;6.920;2022-08-19T00:52:58;22.40;99.90
3602;DHT22;1815;50.950;6.920;2022-08-19T00:55:26;22.40;99.90
3602;DHT22;1815;50.950;6.920;2022-08-19T00:58:07;22.40;99.90
3602;DHT22;1815;50.950;6.920;2022-08-19T01:00:33;22.40;99.90
3602;DHT22;1815;50.950;6.920;2022-08-19T01:03:04;22.40;99.90
3602;DHT22;1815;50.950;6.920;2022-08-19T01:05:31;22.40;99.90
3602;DHT22;1815;50.950;6.920;2022-08-19T01:07:59;22.40;99.90
3602;DHT22;1815;50.950;6.920;2022-08-19T01:10:30;22.30;99.90
3602;DHT22;1815;50.950;6.920;2022-08-19T01:12:58;22.40;99.90
3602;DHT22;1815;50.950;6.920;2022-08-19T01:15:35;22.40;99.90
3602;DHT22;1815;50.950;6.920;2022-08-19T01:18:10;22.30;99.90
3602;DHT22;1815;50.950;6.920;2022-08-19T01:20:39;22.30;99.90
3602;DHT22;1815;50.950;6.920;2022-08-19T01:23:04;22.30;99.90
3602;DHT22;1815;50.950;6.920;2022-08-19T01:25:42;22.30;99.90
3602;DHT22;1815;50.950;6.920;2022-08-19T01:28:19;22.30;99.90
3602;DHT22;1815;50.950;6.920;2022-08-19T01:30:45;22.20;99.90
3602;DHT22;1815;50.950;6.920;2022-08-19T01:33:12;22.20;99.90
3602;DHT22;1815;50.950;6.920;2022-08-19T01:35:38;22.20;99.90
3602;DHT22;1815;50.950;6.920;2022-08-19T01:38:08;22.20;99.90
3602;DHT22;1815;50.950;6.920;2022-08-19T01:40:37;22.20;99.90
3602;DHT22;1815;50.950;6.920;2022-08-19T01:43:04;22.10;99.90
3602;DHT22;1815;50.950;6.920;2022-08-19T01:45:31;22.10;99.90
3602;DHT22;1815;50.950;6.920;2022-08-19T01:47:58;22.10;99.90
3602;DHT22;1815;50.950;6.920;2022-08-19T01:50:25;22.10;99.90
3602;DHT22;1815;50.950;6.920;2022-08-19T01:52:51;22.10;99.90
3602;DHT22;1815;50.950;6.920;2022-08-19T01:55:20;22.10;99.90
3602;DHT22;1815;50.950;6.920;2022-08-19T01:57:51;22.00;99.90
3602;DHT22;1815;50.950;6.920;2022-08-19T02:00:20;22.00;99.90
3602;DHT22;1815;50.950;6.920;2022-08-19T02:02:46;22.00;99.90
3602;DHT22;1815;50.950;6.920;2022-08-19T02:05:12;22.00;99.90
3602;DHT22;1815;50.950;6.920;2022-08-19T02:07:39;22.00;99.90
3602;DHT22;1815;50.950;6.920;2022-08-19T02:10:09;22.00;99.90
3602;DHT22;1815;50.950;6.920;2022-08-19T02:12:36;21.90;99.90
3602;DHT22;1815;50.950;6.920;2022-08-19T02:15:02;21.90;99.90
3602;DHT22;1815;50.950;6.920;2022-08-19T02:17:29;21.90;99.90
3602;DHT22;1815;50.950;6.920;2022-08-19T02:19:55;21.90;99.90
3602;DHT22;1815;50.950;6.920;2022-08-19T02:22:22;21.90;99.90
3602;DHT22;1815;50.950;6.920;2022-08-19T02:24:48;21.90;99.90
3602;DHT22;1815;50.950;6.920;2022-08-19T02:27:14;21.80;99.90
3602;DHT22;1815;50.950;6.920;2022-08-19T02:29:40;21.80;99.90
3602;DHT22;1815;50.950;6.920;2022-08-19T02:32:07;21.80;99.90
3602;DHT22;1815;50.950;6.920;2022-08-19T02:34:33;21.80;99.90
3602;DHT22;1815;50.950;6.920;2022-08-19T02:37:00;21.80;99.90
3602;DHT22;1815;50.950;6.920;2022-08-19T02:39:25;21.80;99.90
3602;DHT22;1815;50.950;6.920;2022-08-19T02:41:52;21.80;99.90
3602;DHT22;1815;50.950;6.920;2022-08-19T02:44:18;21.80;99.90
3602;DHT22;1815;50.950;6.920;2022-08-19T02:46:46;21.80;99.90
3602;DHT22;1815;50.950;6.920;2022-08-19T02:49:13;21.80;99.90
3602;DHT22;1815;50.950;6.920;2022-08-19T02:51:43;21.80;99.90
3602;DHT22;1815;50.950;6.920;2022-08-19T02:54:10;21.80;99.90
3602;DHT22;1815;50.950;6.920;2022-08-19T02:56:38;21.70;99.90
3602;DHT22;1815;50.950;6.920;2022-08-19T02:59:05;21.70;99.90
3602;DHT22;1815;50.950;6.920;2022-08-19T03:01:34;21.70;99.90
3602;DHT22;1815;50.950;6.920;2022-08-19T03:04:02;21.70;99.90
3602;DHT22;1815;50.950;6.920;2022-08-19T03:06:28;21.70;99.90
3602;DHT22;1815;50.950;6.920;2022-08-19T03:08:55;21.70;99.90
3602;DHT22;1815;50.950;6.920;2022-08-19T03:11:29;21.70;99.90
3602;DHT22;1815;50.950;6.920;2022-08-19T03:13:56;21.70;99.90
3602;DHT22;1815;50.950;6.920;2022-08-19T03:16:24;21.70;99.90
3602;DHT22;1815;50.950;6.920;2022-08-19T03:18:51;21.70;99.90
3602;DHT22;1815;50.950;6.920;2022-08-19T03:21:22;21.60;99.90
3602;DHT22;1815;50.950;6.920;2022-08-19T03:23:50;21.60;99.90
3602;DHT22;1815;50.950;6.920;2022-08-19T03:26:16;21.60;99.90
3602;DHT22;1815;50.950;6.920;2022-08-19T03:28:43;21.60;99.90
3602;DHT22;1815;50.950;6.920;2022-08-19T03:31:13;21.60;99.90
3602;DHT22;1815;50.950;6.920;2022-08-19T03:33:39;21.60;99.90
3602;DHT22;1815;50.950;6.920;2022-08-19T03:36:09;21.60;99.90
3602;DHT22;1815;50.950;6.920;2022-08-19T03:38:38;21.60;99.90
3602;DHT22;1815;50.950;6.920;2022-08-19T03:41:07;21.50;99.90
3602;DHT22;1815;50.950;6.920;2022-08-19T03:43:38;21.50;99.90
3602;DHT22;1815;50.950;6.920;2022-08-19T03:46:12;21.50;99.90
3602;DHT22;1815;50.950;6.920;2022-08-19T03:48:41;21.50;99.90
3602;DHT22;1815;50.950;6.920;2022-08-19T03:51:08;21.50;99.90
3602;DHT22;1815;50.950;6.920;2022-08-19T03:53:40;21.50;99.90
3602;DHT22;1815;50.950;6.920;2022-08-19T03:56:09;21.50;99.90
3602;DHT22;1815;50.950;6.920;2022-08-19T03:58:35;21.50;99.90
3602;DHT22;1815;50.950;6.920;2022-08-19T04:01:18;21.50;99.90
3602;DHT22;1815;50.950;6.920;2022-08-19T04:03:45;21.50;99.90
3602;DHT22;1815;50.950;6.920;2022-08-19T04:06:24;21.50;99.90
3602;DHT22;1815;50.950;6.920;2022-08-19T04:08:52;21.50;99.90
3602;DHT22;1815;50.950;6.920;2022-08-19T04:11:25;21.50;99.90
3602;DHT22;1815;50.950;6.920;2022-08-19T04:13:52;21.50;99.90
3602;DHT22;1815;50.950;6.920;2022-08-19T04:16:20;21.50;99.90
3602;DHT22;1815;50.950;6.920;2022-08-19T04:18:47;21.50;99.90
3602;DHT22;1815;50.950;6.920;2022-08-19T04:21:24;21.50;99.90
3602;DHT22;1815;50.950;6.920;2022-08-19T04:23:51;21.50;99.90
3602;DHT22;1815;50.950;6.920;2022-08-19T04:26:20;21.50;99.90
3602;DHT22;1815;50.950;6.920;2022-08-19T04:28:46;21.50;99.90
3602;DHT22;1815;50.950;6.920;2022-08-19T04:31:23;21.50;99.90
3602;DHT22;1815;50.950;6.920;2022-08-19T04:34:03;21.50;99.90
3602;DHT22;1815;50.950;6.920;2022-08-19T04:36:32;21.50;99.90
3602;DHT22;1815;50.950;6.920;2022-08-19T04:39:02;21.50;99.90
3602;DHT22;1815;50.950;6.920;2022-08-19T04:41:28;21.60;99.90
3602;DHT22;1815;50.950;6.920;2022-08-19T04:44:13;21.50;99.90
3602;DHT22;1815;50.950;6.920;2022-08-19T04:46:40;21.60;99.90
3602;DHT22;1815;50.950;6.920;2022-08-19T04:49:06;21.60;99.90
3602;DHT22;1815;50.950;6.920;2022-08-19T04:51:34;21.60;99.90
3602;DHT22;1815;50.950;6.920;2022-08-19T04:54:01;21.70;99.90
3602;DHT22;1815;50.950;6.920;2022-08-19T04:56:27;21.70;99.90
3602;DHT22;1815;50.950;6.920;2022-08-19T04:58:54;21.70;99.90
3602;DHT22;1815;50.950;6.920;2022-08-19T05:01:26;21.80;99.90
3602;DHT22;1815;50.950;6.920;2022-08-19T05:03:54;21.80;99.90
3602;DHT22;1815;50.950;6.920;2022-08-19T05:06:22;21.90;99.90
3602;DHT22;1815;50.950;6.920;2022-08-19T05:08:48;22.00;99.90
3602;DHT22;1815;50.950;6.920;2022-08-19T05:11:18;22.00;99.90
3602;DHT22;1815;50.950;6.920;2022-08-19T05:13:46;22.00;99.90
3602;DHT22;1815;50.950;6.920;2022-08-19T05:16:15;22.10;99.90
3602;DHT22;1815;50.950;6.920;2022-08-19T05:18:41;22.10;99.90
3602;DHT22;1815;50.950;6.920;2022-08-19T05:21:27;22.20;99.90
3602;DHT22;1815;50.950;6.920;2022-08-19T05:24:12;22.20;99.90
3602;DHT22;1815;50.950;6.920;2022-08-19T05:26:42;22.20;99.90
3602;DHT22;1815;50.950;6.920;2022-08-19T05:29:09;22.20;99.90
3602;DHT22;1815;50.950;6.920;2022-08-19T05:31:36;22.20;99.90
3602;DHT22;1815;50.950;6.920;2022-08-19T05:34:04;22.30;99.90
3602;DHT22;1815;50.950;6.920;2022-08-19T05:36:39;22.30;99.90
3602;DHT22;1815;50.950;6.920;2022-08-19T05:39:06;22.30;99.90
3602;DHT22;1815;50.950;6.920;2022-08-19T05:41:33;22.40;99.90
3602;DHT22;1815;50.950;6.920;2022-08-19T05:44:01;22.40;99.90
3602;DHT22;1815;50.950;6.920;2022-08-19T05:46:27;22.50;99.90
3602;DHT22;1815;50.950;6.920;2022-08-19T05:48:53;22.50;99.90
3602;DHT22;1815;50.950;6.920;2022-08-19T05:51:22;22.60;99.90
3602;DHT22;1815;50.950;6.920;2022-08-19T05:53:48;22.60;99.90
3602;DHT22;1815;50.950;6.920;2022-08-19T05:56:15;22.60;99.90
3602;DHT22;1815;50.950;6.920;2022-08-19T05:58:42;22.60;99.90
3602;DHT22;1815;50.950;6.920;2022-08-19T06:01:13;22.70;99.90
3602;DHT22;1815;50.950;6.920;2022-08-19T06:03:39;22.80;99.90
3602;DHT22;1815;50.950;6.920;2022-08-19T06:06:07;22.80;99.90
3602;DHT22;1815;50.950;6.920;2022-08-19T06:08:34;22.90;99.90
3602;DHT22;1815;50.950;6.920;2022-08-19T06:13:45;23.10;99.90
3602;DHT22;1815;50.950;6.920;2022-08-19T06:16:17;23.20;99.90
3602;DHT22;1815;50.950;6.920;2022-08-19T06:18:51;23.30;99.90
3602;DHT22;1815;50.950;6.920;2022-08-19T06:21:22;23.40;99.90
3602;DHT22;1815;50.950;6.920;2022-08-19T06:23:49;23.50;99.90
3602;DHT22;1815;50.950;6.920;2022-08-19T06:26:17;23.60;99.90
3602;DHT22;1815;50.950;6.920;2022-08-19T06:28:44;23.70;99.90
3602;DHT22;1815;50.950;6.920;2022-08-19T06:31:21;23.90;99.90
3602;DHT22;1815;50.950;6.920;2022-08-19T06:33:47;24.10;99.90
3602;DHT22;1815;50.950;6.920;2022-08-19T06:36:47;24.50;99.90
3602;DHT22;1815;50.950;6.920;2022-08-19T06:39:26;25.00;99.90
3602;DHT22;1815;50.950;6.920;2022-08-19T06:41:55;25.70;99.90
3602;DHT22;1815;50.950;6.920;2022-08-19T06:44:24;26.30;99.90
3602;DHT22;1815;50.950;6.920;2022-08-19T06:46:52;26.90;99.90
3602;DHT22;1815;50.950;6.920;2022-08-19T06:49:18;27.60;99.90
3602;DHT22;1815;50.950;6.920;2022-08-19T06:51:46;28.00;99.90
3602;DHT22;1815;50.950;6.920;2022-08-19T06:54:13;28.40;99.90
3602;DHT22;1815;50.950;6.920;2022-08-19T06:56:40;28.60;99.90
3602;DHT22;1815;50.950;6.920;2022-08-19T06:59:14;28.60;99.90
3602;DHT22;1815;50.950;6.920;2022-08-19T07:01:44;28.60;99.90
3602;DHT22;1815;50.950;6.920;2022-08-19T07:04:11;28.60;99.90
3602;DHT22;1815;50.950;6.920;2022-08-19T07:06:38;28.70;99.90
3602;DHT22;1815;50.950;6.920;2022-08-19T07:09:08;28.70;99.90
3602;DHT22;1815;50.950;6.920;2022-08-19T07:11:34;28.60;99.90
3602;DHT22;1815;50.950;6.920;2022-08-19T07:14:01;28.60;99.90
3602;DHT22;1815;50.950;6.920;2022-08-19T07:16:27;28.70;99.90
3602;DHT22;1815;50.950;6.920;2022-08-19T07:18:53;28.60;99.90
3602;DHT22;1815;50.950;6.920;2022-08-19T07:21:26;28.60;99.90
3602;DHT22;1815;50.950;6.920;2022-08-19T07:23:54;28.70;99.90
3602;DHT22;1815;50.950;6.920;2022-08-19T07:26:26;28.80;99.90
3602;DHT22;1815;50.950;6.920;2022-08-19T07:28:53;28.80;99.90
3602;DHT22;1815;50.950;6.920;2022-08-19T07:31:21;28.80;99.90
3602;DHT22;1815;50.950;6.920;2022-08-19T07:33:49;28.90;99.90
3602;DHT22;1815;50.950;6.920;2022-08-19T07:36:19;28.90;99.90
3602;DHT22;1815;50.950;6.920;2022-08-19T07:38:47;28.90;99.90
3602;DHT22;1815;50.950;6.920;2022-08-19T07:41:17;28.80;99.90
3602;DHT22;1815;50.950;6.920;2022-08-19T07:43:43;28.70;99.90
3602;DHT22;1815;50.950;6.920;2022-08-19T07:46:11;28.60;99.90
3602;DHT22;1815;50.950;6.920;2022-08-19T07:48:40;28.50;99.90
3602;DHT22;1815;50.950;6.920;2022-08-19T07:51:09;28.50;99.90
3602;DHT22;1815;50.950;6.920;2022-08-19T07:53:36;28.40;99.90
3602;DHT22;1815;50.950;6.920;2022-08-19T07:56:03;28.30;99.90
3602;DHT22;1815;50.950;6.920;2022-08-19T07:58:32;28.30;99.90
3602;DHT22;1815;50.950;6.920;2022-08-19T08:00:58;28.20;99.90
3602;DHT22;1815;50.950;6.920;2022-08-19T08:03:25;28.10;99.90
3602;DHT22;1815;50.950;6.920;2022-08-19T08:06:12;28.10;99.90
3602;DHT22;1815;50.950;6.920;2022-08-19T08:08:56;28.00;99.90
3602;DHT22;1815;50.950;6.920;2022-08-19T08:11:39;27.90;99.90
3602;DHT22;1815;50.950;6.920;2022-08-19T08:14:06;27.90;99.90
3602;DHT22;1815;50.950;6.920;2022-08-19T08:16:36;27.80;99.90
3602;DHT22;1815;50.950;6.920;2022-08-19T08:19:06;27.80;99.90
3602;DHT22;1815;50.950;6.920;2022-08-19T08:21:33;27.80;99.90
3602;DHT22;1815;50.950;6.920;2022-08-19T08:23:59;27.90;99.90
3602;DHT22;1815;50.950;6.920;2022-08-19T08:26:25;28.10;99.90
3602;DHT22;1815;50.950;6.920;2022-08-19T08:28:52;28.40;99.90
3602;DHT22;1815;50.950;6.920;2022-08-19T08:31:18;28.70;99.90
3602;DHT22;1815;50.950;6.920;2022-08-19T08:33:45;29.10;99.90
3602;DHT22;1815;50.950;6.920;2022-08-19T08:36:12;29.60;99.90
3602;DHT22;1815;50.950;6.920;2022-08-19T08:38:40;30.10;99.90
3602;DHT22;1815;50.950;6.920;2022-08-19T08:43:47;31.20;99.90
3602;DHT22;1815;50.950;6.920;2022-08-19T08:46:22;31.90;99.90
3602;DHT22;1815;50.950;6.920;2022-08-19T08:49:19;32.50;99.90
3602;DHT22;1815;50.950;6.920;2022-08-19T08:54:38;33.50;97.80
3602;DHT22;1815;50.950;6.920;2022-08-19T08:57:12;33.80;96.20
3602;DHT22;1815;50.950;6.920;2022-08-19T08:59:40;34.10;95.30
3602;DHT22;1815;50.950;6.920;2022-08-19T09:02:07;34.50;94.60
3602;DHT22;1815;50.950;6.920;2022-08-19T09:04:35;34.90;93.80
3602;DHT22;1815;50.950;6.920;2022-08-19T09:07:17;35.30;92.30
3602;DHT22;1815;50.950;6.920;2022-08-19T09:09:49;35.70;91.10
3602;DHT22;1815;50.950;6.920;2022-08-19T09:15:07;36.30;87.70
3602;DHT22;1815;50.950;6.920;2022-08-19T09:17:35;36.40;84.00
3602;DHT22;1815;50.950;6.920;2022-08-19T09:22:41;36.80;79.10
3602;DHT22;1815;50.950;6.920;2022-08-19T09:25:11;37.00;76.30
3602;DHT22;1815;50.950;6.920;2022-08-19T09:27:39;37.20;76.40
3602;DHT22;1815;50.950;6.920;2022-08-19T09:30:08;37.30;75.10
3602;DHT22;1815;50.950;6.920;2022-08-19T09:32:34;37.50;73.20
3602;DHT22;1815;50.950;6.920;2022-08-19T09:35:01;37.60;70.50
3602;DHT22;1815;50.950;6.920;2022-08-19T09:37:27;37.80;70.00
3602;DHT22;1815;50.950;6.920;2022-08-19T09:39:53;38.10;68.20
3602;DHT22;1815;50.950;6.920;2022-08-19T09:42:19;38.50;67.60
3602;DHT22;1815;50.950;6.920;2022-08-19T09:44:46;38.80;65.70
3602;DHT22;1815;50.950;6.920;2022-08-19T09:47:13;39.10;64.30
3602;DHT22;1815;50.950;6.920;2022-08-19T09:49:40;39.50;63.10
3602;DHT22;1815;50.950;6.920;2022-08-19T09:52:08;39.80;59.50
3602;DHT22;1815;50.950;6.920;2022-08-19T09:54:34;40.00;57.90
3602;DHT22;1815;50.950;6.920;2022-08-19T09:57:00;39.90;55.70
3602;DHT22;1815;50.950;6.920;2022-08-19T09:59:27;39.90;55.40
3602;DHT22;1815;50.950;6.920;2022-08-19T10:01:53;40.00;54.80
3602;DHT22;1815;50.950;6.920;2022-08-19T10:04:19;40.30;54.60
3602;DHT22;1815;50.950;6.920;2022-08-19T10:06:47;40.50;53.60
3602;DHT22;1815;50.950;6.920;2022-08-19T10:09:15;40.50;53.10
3602;DHT22;1815;50.950;6.920;2022-08-19T10:11:44;40.70;52.50
3602;DHT22;1815;50.950;6.920;2022-08-19T10:14:15;40.90;50.70
3602;DHT22;1815;50.950;6.920;2022-08-19T10:16:42;40.90;50.20
3602;DHT22;1815;50.950;6.920;2022-08-19T10:19:09;41.00;49.70
3602;DHT22;1815;50.950;6.920;2022-08-19T10:21:35;40.90;48.70
3602;DHT22;1815;50.950;6.920;2022-08-19T10:24:03;40.60;48.30
3602;DHT22;1815;50.950;6.920;2022-08-19T10:26:39;40.30;47.80
3602;DHT22;1815;50.950;6.920;2022-08-19T10:29:07;40.10;47.60
3602;DHT22;1815;50.950;6.920;2022-08-19T10:31:34;39.80;47.90
3602;DHT22;1815;50.950;6.920;2022-08-19T10:34:00;39.50;48.10
3602;DHT22;1815;50.950;6.920;2022-08-19T10:36:30;39.20;47.40
3602;DHT22;1815;50.950;6.920;2022-08-19T10:38:59;38.90;47.10
3602;DHT22;1815;50.950;6.920;2022-08-19T10:41:29;38.40;47.00
3602;DHT22;1815;50.950;6.920;2022-08-19T10:43:58;38.00;47.50
3602;DHT22;1815;50.950;6.920;2022-08-19T10:46:26;37.80;48.30
3602;DHT22;1815;50.950;6.920;2022-08-19T10:48:52;37.60;48.10
3602;DHT22;1815;50.950;6.920;2022-08-19T10:51:18;37.40;48.40
3602;DHT22;1815;50.950;6.920;2022-08-19T10:54:03;37.40;49.10
3602;DHT22;1815;50.950;6.920;2022-08-19T10:56:30;37.40;49.50
3602;DHT22;1815;50.950;6.920;2022-08-19T10:59:16;37.50;49.60
3602;DHT22;1815;50.950;6.920;2022-08-19T11:01:44;37.60;49.70
3602;DHT22;1815;50.950;6.920;2022-08-19T11:04:11;37.70;49.40
3602;DHT22;1815;50.950;6.920;2022-08-19T11:06:41;37.80;49.40
3602;DHT22;1815;50.950;6.920;2022-08-19T11:09:09;37.80;48.90
3602;DHT22;1815;50.950;6.920;2022-08-19T11:11:37;37.80;48.70
3602;DHT22;1815;50.950;6.920;2022-08-19T11:14:11;37.80;48.40
3602;DHT22;1815;50.950;6.920;2022-08-19T11:16:37;37.70;48.00
3602;DHT22;1815;50.950;6.920;2022-08-19T11:19:05;37.70;48.00
3602;DHT22;1815;50.950;6.920;2022-08-19T11:21:39;37.70;48.00
3602;DHT22;1815;50.950;6.920;2022-08-19T11:24:14;37.80;47.90
3602;DHT22;1815;50.950;6.920;2022-08-19T11:26:41;37.90;47.70
3602;DHT22;1815;50.950;6.920;2022-08-19T11:29:09;38.10;47.70
3602;DHT22;1815;50.950;6.920;2022-08-19T11:31:41;38.20;47.50
3602;DHT22;1815;50.950;6.920;2022-08-19T11:34:11;38.10;46.60
3602;DHT22;1815;50.950;6.920;2022-08-19T11:36:40;37.80;46.10
3602;DHT22;1815;50.950;6.920;2022-08-19T11:39:08;37.60;46.40
3602;DHT22;1815;50.950;6.920;2022-08-19T11:41:35;37.50;46.50
3602;DHT22;1815;50.950;6.920;2022-08-19T11:44:02;37.30;46.10
3602;DHT22;1815;50.950;6.920;2022-08-19T11:46:32;37.20;46.10
3602;DHT22;1815;50.950;6.920;2022-08-19T11:48:59;37.10;46.70
3602;DHT22;1815;50.950;6.920;2022-08-19T11:51:29;37.20;47.00
3602;DHT22;1815;50.950;6.920;2022-08-19T11:53:56;37.30;46.80
3602;DHT22;1815;50.950;6.920;2022-08-19T11:56:24;37.30;46.20
3602;DHT22;1815;50.950;6.920;2022-08-19T11:58:51;37.10;45.90
3602;DHT22;1815;50.950;6.920;2022-08-19T12:01:19;37.00;45.80
3602;DHT22;1815;50.950;6.920;2022-08-19T12:03:46;36.80;45.80
3602;DHT22;1815;50.950;6.920;2022-08-19T12:06:15;36.60;45.60
3602;DHT22;1815;50.950;6.920;2022-08-19T12:08:42;36.50;45.80
3602;DHT22;1815;50.950;6.920;2022-08-19T12:11:09;36.20;45.50
3602;DHT22;1815;50.950;6.920;2022-08-19T12:13:37;36.00;45.60
3602;DHT22;1815;50.950;6.920;2022-08-19T12:16:21;35.80;45.70
3602;DHT22;1815;50.950;6.920;2022-08-19T12:18:48;35.50;46.00
3602;DHT22;1815;50.950;6.920;2022-08-19T12:21:23;35.50;46.60
3602;DHT22;1815;50.950;6.920;2022-08-19T12:23:50;35.40;46.60
3602;DHT22;1815;50.950;6.920;2022-08-19T12:26:17;35.30;47.20
3602;DHT22;1815;50.950;6.920;2022-08-19T12:28:43;35.40;47.20
3602;DHT22;1815;50.950;6.920;2022-08-19T12:31:10;35.30;47.20
3602;DHT22;1815;50.950;6.920;2022-08-19T12:33:40;35.20;46.70
3602;DHT22;1815;50.950;6.920;2022-08-19T12:36:08;35.20;46.90
3602;DHT22;1815;50.950;6.920;2022-08-19T12:38:35;35.10;47.10
3602;DHT22;1815;50.950;6.920;2022-08-19T12:41:01;35.10;46.80
3602;DHT22;1815;50.950;6.920;2022-08-19T12:43:31;34.90;46.30
3602;DHT22;1815;50.950;6.920;2022-08-19T12:45:57;34.70;46.30
3602;DHT22;1815;50.950;6.920;2022-08-19T12:48:23;34.40;46.40
3602;DHT22;1815;50.950;6.920;2022-08-19T12:50:48;34.20;46.20
3602;DHT22;1815;50.950;6.920;2022-08-19T12:53:14;33.90;46.20
3602;DHT22;1815;50.950;6.920;2022-08-19T12:55:41;33.70;46.50
3602;DHT22;1815;50.950;6.920;2022-08-19T12:58:08;33.50;46.80
3602;DHT22;1815;50.950;6.920;2022-08-19T13:00:34;33.30;47.00
3602;DHT22;1815;50.950;6.920;2022-08-19T13:03:00;33.20;47.30
3602;DHT22;1815;50.950;6.920;2022-08-19T13:05:29;33.00;47.30
3602;DHT22;1815;50.950;6.920;2022-08-19T13:07:57;32.90;47.40
3602;DHT22;1815;50.950;6.920;2022-08-19T13:10:28;32.70;47.10
3602;DHT22;1815;50.950;6.920;2022-08-19T13:12:55;32.50;47.10
3602;DHT22;1815;50.950;6.920;2022-08-19T13:15:23;32.30;47.20
3602;DHT22;1815;50.950;6.920;2022-08-19T13:17:50;32.10;47.40
3602;DHT22;1815;50.950;6.920;2022-08-19T13:20:19;32.00;47.50
3602;DHT22;1815;50.950;6.920;2022-08-19T13:22:46;31.80;47.60
3602;DHT22;1815;50.950;6.920;2022-08-19T13:25:13;31.70;48.30
3602;DHT22;1815;50.950;6.920;2022-08-19T13:27:40;31.60;47.80
3602;DHT22;1815;50.950;6.920;2022-08-19T13:30:08;31.50;47.90
3602;DHT22;1815;50.950;6.920;2022-08-19T13:32:52;31.40;48.00
3602;DHT22;1815;50.950;6.920;2022-08-19T13:35:41;31.30;48.20
3602;DHT22;1815;50.950;6.920;2022-08-19T13:38:08;31.20;48.30
3602;DHT22;1815;50.950;6.920;2022-08-19T13:40:33;31.20;48.20
3602;DHT22;1815;50.950;6.920;2022-08-19T13:43:00;31.10;48.10
3602;DHT22;1815;50.950;6.920;2022-08-19T13:45:28;31.00;48.80
3602;DHT22;1815;50.950;6.920;2022-08-19T13:47:56;30.90;48.20
3602;DHT22;1815;50.950;6.920;2022-08-19T13:50:26;30.90;48.30
3602;DHT22;1815;50.950;6.920;2022-08-19T13:52:53;30.80;48.30
3602;DHT22;1815;50.950;6.920;2022-08-19T13:55:19;30.70;48.30
3602;DHT22;1815;50.950;6.920;2022-08-19T13:57:45;30.60;48.10
3602;DHT22;1815;50.950;6.920;2022-08-19T14:00:17;30.60;48.70
3602;DHT22;1815;50.950;6.920;2022-08-19T14:02:45;30.60;48.90
3602;DHT22;1815;50.950;6.920;2022-08-19T14:05:14;30.60;49.60
3602;DHT22;1815;50.950;6.920;2022-08-19T14:07:40;30.60;48.80
3602;DHT22;1815;50.950;6.920;2022-08-19T14:10:08;30.60;48.70
3602;DHT22;1815;50.950;6.920;2022-08-19T14:12:35;30.60;48.80
3602;DHT22;1815;50.950;6.920;2022-08-19T14:15:03;30.60;49.00
3602;DHT22;1815;50.950;6.920;2022-08-19T14:17:29;30.60;49.20
3602;DHT22;1815;50.950;6.920;2022-08-19T14:19:59;30.60;49.20
3602;DHT22;1815;50.950;6.920;2022-08-19T14:22:35;30.60;49.00
3602;DHT22;1815;50.950;6.920;2022-08-19T14:25:02;30.60;48.90
3602;DHT22;1815;50.950;6.920;2022-08-19T14:27:28;30.50;49.10
3602;DHT22;1815;50.950;6.920;2022-08-19T14:29:54;30.50;49.40
3602;DHT22;1815;50.950;6.920;2022-08-19T14:32:20;30.60;49.60
3602;DHT22;1815;50.950;6.920;2022-08-19T14:34:47;30.60;49.80
3602;DHT22;1815;50.950;6.920;2022-08-19T14:37:14;30.60;50.50
3602;DHT22;1815;50.950;6.920;2022-08-19T14:39:41;30.60;49.90
3602;DHT22;1815;50.950;6.920;2022-08-19T14:42:08;30.60;50.00
3602;DHT22;1815;50.950;6.920;2022-08-19T14:44:34;30.60;49.90
3602;DHT22;1815;50.950;6.920;2022-08-19T14:47:00;30.60;49.90
3602;DHT22;1815;50.950;6.920;2022-08-19T14:49:26;30.70;49.90
3602;DHT22;1815;50.950;6.920;2022-08-19T14:51:52;30.70;49.90
3602;DHT22;1815;50.950;6.920;2022-08-19T14:54:18;30.80;49.90
3602;DHT22;1815;50.950;6.920;2022-08-19T14:56:44;30.90;49.90
3602;DHT22;1815;50.950;6.920;2022-08-19T14:59:10;31.00;49.70
3602;DHT22;1815;50.950;6.920;2022-08-19T15:01:36;31.00;49.40
3602;DHT22;1815;50.950;6.920;2022-08-19T15:04:02;31.00;49.20
3602;DHT22;1815;50.950;6.920;2022-08-19T15:06:28;31.10;49.10
3602;DHT22;1815;50.950;6.920;2022-08-19T15:08:54;31.10;48.90
3602;DHT22;1815;50.950;6.920;2022-08-19T15:11:23;31.10;48.80
3602;DHT22;1815;50.950;6.920;2022-08-19T15:13:49;31.00;48.70
3602;DHT22;1815;50.950;6.920;2022-08-19T15:16:16;31.00;48.80
3602;DHT22;1815;50.950;6.920;2022-08-19T15:18:43;31.00;48.80
3602;DHT22;1815;50.950;6.920;2022-08-19T15:21:13;31.00;48.60
3602;DHT22;1815;50.950;6.920;2022-08-19T15:23:40;31.00;48.40
3602;DHT22;1815;50.950;6.920;2022-08-19T15:26:06;30.90;48.20
3602;DHT22;1815;50.950;6.920;2022-08-19T15:28:34;30.90;48.10
3602;DHT22;1815;50.950;6.920;2022-08-19T15:31:00;30.90;48.30
3602;DHT22;1815;50.950;6.920;2022-08-19T15:33:26;30.80;48.20
3602;DHT22;1815;50.950;6.920;2022-08-19T15:35:52;30.80;48.20
3602;DHT22;1815;50.950;6.920;2022-08-19T15:38:19;30.80;48.40
3602;DHT22;1815;50.950;6.920;2022-08-19T15:40:50;30.80;48.60
3602;DHT22;1815;50.950;6.920;2022-08-19T15:43:17;30.80;48.70
3602;DHT22;1815;50.950;6.920;2022-08-19T15:45:44;30.90;48.80
3602;DHT22;1815;50.950;6.920;2022-08-19T15:48:10;30.90;48.90
3602;DHT22;1815;50.950;6.920;2022-08-19T15:50:36;31.00;49.00
3602;DHT22;1815;50.950;6.920;2022-08-19T15:53:06;31.00;49.10
3602;DHT22;1815;50.950;6.920;2022-08-19T15:55:34;30.90;49.10
3602;DHT22;1815;50.950;6.920;2022-08-19T15:58:05;30.90;49.20
3602;DHT22;1815;50.950;6.920;2022-08-19T16:00:50;30.80;49.30
3602;DHT22;1815;50.950;6.920;2022-08-19T16:03:35;30.70;49.40
3602;DHT22;1815;50.950;6.920;2022-08-19T16:06:19;30.50;49.60
3602;DHT22;1815;50.950;6.920;2022-08-19T16:09:01;30.50;50.00
3602;DHT22;1815;50.950;6.920;2022-08-19T16:11:31;30.40;50.40
3602;DHT22;1815;50.950;6.920;2022-08-19T16:13:59;30.20;50.40
3602;DHT22;1815;50.950;6.920;2022-08-19T16:16:27;30.10;50.70
3602;DHT22;1815;50.950;6.920;2022-08-19T16:18:55;30.10;51.00
3602;DHT22;1815;50.950;6.920;2022-08-19T16:21:23;30.00;51.20
3602;DHT22;1815;50.950;6.920;2022-08-19T16:23:50;30.00;51.50
3602;DHT22;1815;50.950;6.920;2022-08-19T16:26:17;30.00;51.60